Airfield :
LOGIN :

Register | Disclaimer

   EN    FR    IT 

 










Legend :    VFR   Marginal VFR   IFR   Intensive IFR   Very Intensive IFR
Visi :
Ceiling :
>= 8 km
>= 3000ft
5 to 8 km
1000 to 3000 ft
1500m to 5 km
500 to 1000 ft
800 to 1500m
200 to 500 ft
< 800m
< 200 ft
Symbols :   Thunderstorms  Fog  Heavy snow  Heavy precipitations  Wind > 20 kt
SIGMETs :     Misc.  Thunderstorms  Icing  Turbulence  Mountain Waves  Volcanic Ashes






- Airport Elevation : 286 ft
- IATA code : TRF


ENTO - Sandefjord , Torp

CURRENT METAR :
  • 291850Z 35001KT 0200 R18/1100U R36/P2000N MIFG FEW001 M01/M01 Q0991 TEMPO 0500 FZFG VV001

EXPIRED METARs :
  • 291820Z 36002KT 4000 BCFG NSC M00/M00 Q0991 TEMPO 2000 BR VV002
  • 291750Z 00000KT 5000 BCFG NSC 00/00 Q0991 TEMPO 2000 BR VV002
  • 291720Z 20002KT 7000 VCFG NSC M00/M00 Q0990 TEMPO 2000 BR VV002
  • 291650Z 21001KT 9999 VCFG NSC 01/01 Q0990 TEMPO 2000 BR VV002
  • 291620Z 18002KT 9999 MIFG NSC 01/01 Q0990 NOSIG

TAF TAF ENTO
Valid from the 29 at 18:00 until the 30 at 18:00 UTC


2918/3018 VRB05KT 9999 FEW001
PROB40 2918/3010 0500 FZFG VV001
BECMG 3010/3012 BKN010



MET'MAP, your aeronautical weather chart ! - Copyright ORBIFLY December 2007 - Disclaimer

ORBIFLY MET'MAP TEAM :

Programming & Development : Alexandra Zaïnal
Concept & original design : Baudouin d'Aumeries
Assistance for programming : Marc-Olivier Méhu
Technical & hardware support : Manuel Goepfert

Contact : metmap@orbifly.com




SOURCES & CREDITS :

   NOAA